sensor_id;sensor_type;location;lat;lon;timestamp;P1;P2;P0
77692;PMS5003;66984;47.404;18.836;2023-02-19T00:00:20;6.00;6.00;2.00
77692;PMS5003;66984;47.404;18.836;2023-02-19T00:01:23;4.25;4.25;1.00
77692;PMS5003;66984;47.404;18.836;2023-02-19T00:02:31;4.00;4.00;0.50
77692;PMS5003;66984;47.404;18.836;2023-02-19T00:03:35;6.00;6.00;2.75
77692;PMS5003;66984;47.404;18.836;2023-02-19T00:04:38;5.00;5.00;2.00
77692;PMS5003;66984;47.404;18.836;2023-02-19T00:05:41;5.25;5.00;2.00
77692;PMS5003;66984;47.404;18.836;2023-02-19T00:06:44;6.00;5.00;2.50
77692;PMS5003;66984;47.404;18.836;2023-02-19T00:07:47;7.00;6.00;3.00
77692;PMS5003;66984;47.404;18.836;2023-02-19T00:08:50;6.00;5.00;2.00
77692;PMS5003;66984;47.404;18.836;2023-02-19T00:09:53;7.00;6.00;2.00
77692;PMS5003;66984;47.404;18.836;2023-02-19T00:11:00;6.00;6.00;3.00
77692;PMS5003;66984;47.404;18.836;2023-02-19T00:12:03;6.00;6.00;2.00
77692;PMS5003;66984;47.404;18.836;2023-02-19T00:13:06;6.00;6.00;2.75
77692;PMS5003;66984;47.404;18.836;2023-02-19T00:14:10;4.25;4.25;2.00
77692;PMS5003;66984;47.404;18.836;2023-02-19T00:15:20;5.25;5.00;2.00
77692;PMS5003;66984;47.404;18.836;2023-02-19T00:17:32;6.00;5.75;2.00
77692;PMS5003;66984;47.404;18.836;2023-02-19T00:18:34;7.25;7.00;2.00
77692;PMS5003;66984;47.404;18.836;2023-02-19T00:19:37;7.00;7.00;2.00
77692;PMS5003;66984;47.404;18.836;2023-02-19T00:20:40;6.75;6.75;3.00
77692;PMS5003;66984;47.404;18.836;2023-02-19T00:21:43;7.00;7.00;2.50
77692;PMS5003;66984;47.404;18.836;2023-02-19T00:22:46;6.50;6.50;2.00
77692;PMS5003;66984;47.404;18.836;2023-02-19T00:23:49;5.75;5.00;2.00
77692;PMS5003;66984;47.404;18.836;2023-02-19T00:24:53;6.00;6.00;2.25
77692;PMS5003;66984;47.404;18.836;2023-02-19T00:25:55;6.00;6.00;2.00
77692;PMS5003;66984;47.404;18.836;2023-02-19T00:27:12;6.75;6.00;2.00
77692;PMS5003;66984;47.404;18.836;2023-02-19T00:28:15;6.25;6.25;2.00
77692;PMS5003;66984;47.404;18.836;2023-02-19T00:29:18;6.50;6.00;2.25
77692;PMS5003;66984;47.404;18.836;2023-02-19T00:30:23;6.00;5.00;2.00
77692;PMS5003;66984;47.404;18.836;2023-02-19T00:31:26;6.00;6.00;1.00
77692;PMS5003;66984;47.404;18.836;2023-02-19T00:32:33;4.50;4.50;2.00
77692;PMS5003;66984;47.404;18.836;2023-02-19T00:33:36;4.00;4.00;2.00
77692;PMS5003;66984;47.404;18.836;2023-02-19T00:34:38;4.00;4.00;1.00
77692;PMS5003;66984;47.404;18.836;2023-02-19T00:35:41;4.75;4.75;1.00
77692;PMS5003;66984;47.404;18.836;2023-02-19T00:36:44;5.00;4.00;0.00
77692;PMS5003;66984;47.404;18.836;2023-02-19T00:37:47;3.00;3.00;0.00
77692;PMS5003;66984;47.404;18.836;2023-02-19T00:38:49;5.00;5.00;0.00
77692;PMS5003;66984;47.404;18.836;2023-02-19T00:39:53;4.25;4.25;0.00
77692;PMS5003;66984;47.404;18.836;2023-02-19T00:40:57;3.75;3.75;1.00
77692;PMS5003;66984;47.404;18.836;2023-02-19T00:42:01;4.25;4.25;1.00
77692;PMS5003;66984;47.404;18.836;2023-02-19T00:43:04;4.00;4.00;1.00
77692;PMS5003;66984;47.404;18.836;2023-02-19T00:44:07;5.00;5.00;1.00
77692;PMS5003;66984;47.404;18.836;2023-02-19T00:45:09;4.00;4.00;1.00
77692;PMS5003;66984;47.404;18.836;2023-02-19T00:46:13;3.25;3.00;0.00
77692;PMS5003;66984;47.404;18.836;2023-02-19T00:47:16;4.25;4.00;0.00
77692;PMS5003;66984;47.404;18.836;2023-02-19T00:48:19;5.00;5.00;0.00
77692;PMS5003;66984;47.404;18.836;2023-02-19T00:49:22;5.00;5.00;0.00
77692;PMS5003;66984;47.404;18.836;2023-02-19T00:50:25;5.75;5.75;0.00
77692;PMS5003;66984;47.404;18.836;2023-02-19T00:51:29;6.00;6.00;0.00
77692;PMS5003;66984;47.404;18.836;2023-02-19T00:52:33;4.25;4.25;1.00
77692;PMS5003;66984;47.404;18.836;2023-02-19T00:53:36;4.00;4.00;1.25
77692;PMS5003;66984;47.404;18.836;2023-02-19T00:54:39;4.00;4.00;1.00
77692;PMS5003;66984;47.404;18.836;2023-02-19T00:55:41;4.00;4.00;1.00
77692;PMS5003;66984;47.404;18.836;2023-02-19T00:56:44;4.50;4.50;2.00
77692;PMS5003;66984;47.404;18.836;2023-02-19T00:57:47;2.75;2.50;1.00
77692;PMS5003;66984;47.404;18.836;2023-02-19T00:58:50;4.00;3.25;1.00
77692;PMS5003;66984;47.404;18.836;2023-02-19T00:59:53;3.75;3.75;2.75
77692;PMS5003;66984;47.404;18.836;2023-02-19T01:00:56;4.00;4.00;1.00
77692;PMS5003;66984;47.404;18.836;2023-02-19T01:01:59;4.00;4.00;1.00
77692;PMS5003;66984;47.404;18.836;2023-02-19T01:03:01;3.00;3.00;1.00
77692;PMS5003;66984;47.404;18.836;2023-02-19T01:04:05;3.50;3.50;0.00
77692;PMS5003;66984;47.404;18.836;2023-02-19T01:05:08;3.25;3.25;0.00
77692;PMS5003;66984;47.404;18.836;2023-02-19T01:06:12;1.50;1.50;1.00
77692;PMS5003;66984;47.404;18.836;2023-02-19T01:07:16;3.50;3.25;0.00
77692;PMS5003;66984;47.404;18.836;2023-02-19T01:08:19;3.00;3.00;0.00
77692;PMS5003;66984;47.404;18.836;2023-02-19T01:09:22;4.00;4.00;0.00
77692;PMS5003;66984;47.404;18.836;2023-02-19T01:10:25;3.00;3.00;1.00
77692;PMS5003;66984;47.404;18.836;2023-02-19T01:11:28;3.00;3.00;1.00
77692;PMS5003;66984;47.404;18.836;2023-02-19T01:12:31;4.00;4.00;1.50
77692;PMS5003;66984;47.404;18.836;2023-02-19T01:13:34;2.00;2.00;1.00
77692;PMS5003;66984;47.404;18.836;2023-02-19T01:14:37;1.75;1.75;0.00
77692;PMS5003;66984;47.404;18.836;2023-02-19T01:15:40;2.00;1.00;0.00
77692;PMS5003;66984;47.404;18.836;2023-02-19T01:16:42;3.75;3.00;0.00
77692;PMS5003;66984;47.404;18.836;2023-02-19T01:17:45;3.00;2.00;0.00
77692;PMS5003;66984;47.404;18.836;2023-02-19T01:18:48;3.00;3.00;0.00
77692;PMS5003;66984;47.404;18.836;2023-02-19T01:19:51;3.00;3.00;0.00
77692;PMS5003;66984;47.404;18.836;2023-02-19T01:20:53;3.00;3.00;0.00
77692;PMS5003;66984;47.404;18.836;2023-02-19T01:21:56;3.25;3.25;0.00
77692;PMS5003;66984;47.404;18.836;2023-02-19T01:22:59;3.00;2.00;0.00
77692;PMS5003;66984;47.404;18.836;2023-02-19T01:24:01;4.00;4.00;0.00
77692;PMS5003;66984;47.404;18.836;2023-02-19T01:25:04;3.00;3.00;0.00
77692;PMS5003;66984;47.404;18.836;2023-02-19T01:26:08;2.00;2.00;0.00
77692;PMS5003;66984;47.404;18.836;2023-02-19T01:27:14;0.75;0.75;0.00
77692;PMS5003;66984;47.404;18.836;2023-02-19T01:28:16;2.00;2.00;0.00
77692;PMS5003;66984;47.404;18.836;2023-02-19T01:29:19;1.50;1.50;0.00
77692;PMS5003;66984;47.404;18.836;2023-02-19T01:30:22;2.00;2.00;0.00
77692;PMS5003;66984;47.404;18.836;2023-02-19T01:31:25;3.00;3.00;0.00
77692;PMS5003;66984;47.404;18.836;2023-02-19T01:32:28;4.00;3.00;0.00
77692;PMS5003;66984;47.404;18.836;2023-02-19T01:33:31;3.00;3.00;0.00
77692;PMS5003;66984;47.404;18.836;2023-02-19T01:34:36;3.00;2.00;1.00
77692;PMS5003;66984;47.404;18.836;2023-02-19T01:35:38;3.00;2.50;1.00
77692;PMS5003;66984;47.404;18.836;2023-02-19T01:36:41;2.25;2.00;0.00
77692;PMS5003;66984;47.404;18.836;2023-02-19T01:37:44;2.50;2.50;0.00
77692;PMS5003;66984;47.404;18.836;2023-02-19T01:38:46;2.00;2.00;0.00
77692;PMS5003;66984;47.404;18.836;2023-02-19T01:39:49;3.00;2.00;0.00
77692;PMS5003;66984;47.404;18.836;2023-02-19T01:40:53;3.00;3.00;0.00
77692;PMS5003;66984;47.404;18.836;2023-02-19T01:41:57;2.00;2.00;0.00
77692;PMS5003;66984;47.404;18.836;2023-02-19T01:43:00;3.00;1.75;0.00
77692;PMS5003;66984;47.404;18.836;2023-02-19T01:44:07;1.00;1.00;0.00
77692;PMS5003;66984;47.404;18.836;2023-02-19T01:46:30;1.00;1.00;0.00
77692;PMS5003;66984;47.404;18.836;2023-02-19T01:47:34;2.00;2.00;0.00
77692;PMS5003;66984;47.404;18.836;2023-02-19T01:48:37;2.00;2.00;0.00
77692;PMS5003;66984;47.404;18.836;2023-02-19T01:49:45;1.00;1.00;0.00
77692;PMS5003;66984;47.404;18.836;2023-02-19T01:51:04;1.25;1.25;0.00
77692;PMS5003;66984;47.404;18.836;2023-02-19T01:52:15;2.00;2.00;0.00
77692;PMS5003;66984;47.404;18.836;2023-02-19T01:53:23;2.00;2.00;0.00
77692;PMS5003;66984;47.404;18.836;2023-02-19T01:54:30;2.00;2.00;0.00
77692;PMS5003;66984;47.404;18.836;2023-02-19T01:55:36;2.00;2.00;0.00
77692;PMS5003;66984;47.404;18.836;2023-02-19T01:56:40;2.00;2.00;0.00
77692;PMS5003;66984;47.404;18.836;2023-02-19T01:57:45;3.50;3.00;0.00
77692;PMS5003;66984;47.404;18.836;2023-02-19T01:58:49;2.00;2.00;0.00
77692;PMS5003;66984;47.404;18.836;2023-02-19T01:59:54;1.75;1.75;0.00
77692;PMS5003;66984;47.404;18.836;2023-02-19T02:01:03;2.50;2.25;0.00
77692;PMS5003;66984;47.404;18.836;2023-02-19T02:02:08;5.00;4.00;0.00
77692;PMS5003;66984;47.404;18.836;2023-02-19T02:03:11;3.50;3.50;0.00
77692;PMS5003;66984;47.404;18.836;2023-02-19T02:04:14;4.00;3.25;0.00
77692;PMS5003;66984;47.404;18.836;2023-02-19T02:06:55;3.25;3.00;0.00
77692;PMS5003;66984;47.404;18.836;2023-02-19T02:07:59;3.00;3.00;0.00
77692;PMS5003;66984;47.404;18.836;2023-02-19T02:09:25;4.00;4.00;1.00
77692;PMS5003;66984;47.404;18.836;2023-02-19T02:10:48;3.00;3.00;0.00
77692;PMS5003;66984;47.404;18.836;2023-02-19T02:11:52;2.75;2.75;0.00
77692;PMS5003;66984;47.404;18.836;2023-02-19T02:12:56;1.00;1.00;0.00
77692;PMS5003;66984;47.404;18.836;2023-02-19T02:13:59;1.25;1.25;0.00
77692;PMS5003;66984;47.404;18.836;2023-02-19T02:15:02;2.00;2.00;0.00
77692;PMS5003;66984;47.404;18.836;2023-02-19T02:16:16;2.00;1.00;0.00
77692;PMS5003;66984;47.404;18.836;2023-02-19T02:17:27;2.00;1.00;0.00
77692;PMS5003;66984;47.404;18.836;2023-02-19T02:22:14;2.00;2.00;0.00
77692;PMS5003;66984;47.404;18.836;2023-02-19T02:23:45;1.00;1.00;0.00
77692;PMS5003;66984;47.404;18.836;2023-02-19T02:26:45;0.00;0.00;0.00
77692;PMS5003;66984;47.404;18.836;2023-02-19T02:30:58;0.00;0.00;0.00
77692;PMS5003;66984;47.404;18.836;2023-02-19T02:32:11;0.00;0.00;0.00
77692;PMS5003;66984;47.404;18.836;2023-02-19T02:33:23;0.00;0.00;0.00
77692;PMS5003;66984;47.404;18.836;2023-02-19T02:35:00;0.25;0.00;0.00
77692;PMS5003;66984;47.404;18.836;2023-02-19T02:36:14;0.00;0.00;0.00
77692;PMS5003;66984;47.404;18.836;2023-02-19T02:37:26;0.00;0.00;0.00
77692;PMS5003;66984;47.404;18.836;2023-02-19T02:38:33;0.00;0.00;0.00
77692;PMS5003;66984;47.404;18.836;2023-02-19T02:39:38;0.00;0.00;0.00
77692;PMS5003;66984;47.404;18.836;2023-02-19T02:40:43;0.00;0.00;0.00
77692;PMS5003;66984;47.404;18.836;2023-02-19T02:41:49;0.00;0.00;0.00
77692;PMS5003;66984;47.404;18.836;2023-02-19T02:43:17;0.00;0.00;0.00
77692;PMS5003;66984;47.404;18.836;2023-02-19T02:44:20;0.00;0.00;0.00
77692;PMS5003;66984;47.404;18.836;2023-02-19T02:45:29;0.00;0.00;0.00
77692;PMS5003;66984;47.404;18.836;2023-02-19T02:46:37;0.00;0.00;0.00
77692;PMS5003;66984;47.404;18.836;2023-02-19T02:47:46;0.00;0.00;0.00
77692;PMS5003;66984;47.404;18.836;2023-02-19T02:48:57;0.00;0.00;0.00
77692;PMS5003;66984;47.404;18.836;2023-02-19T02:50:08;0.00;0.00;0.00
77692;PMS5003;66984;47.404;18.836;2023-02-19T02:52:24;0.00;0.00;0.00
77692;PMS5003;66984;47.404;18.836;2023-02-19T02:55:41;0.00;0.00;0.00
77692;PMS5003;66984;47.404;18.836;2023-02-19T02:56:45;0.00;0.00;0.00
77692;PMS5003;66984;47.404;18.836;2023-02-19T02:57:50;0.00;0.00;0.00
77692;PMS5003;66984;47.404;18.836;2023-02-19T02:58:53;0.00;0.00;0.00
77692;PMS5003;66984;47.404;18.836;2023-02-19T02:59:58;0.00;0.00;0.00
77692;PMS5003;66984;47.404;18.836;2023-02-19T03:01:03;0.00;0.00;0.00
77692;PMS5003;66984;47.404;18.836;2023-02-19T03:02:29;0.00;0.00;0.00
77692;PMS5003;66984;47.404;18.836;2023-02-19T03:03:32;0.00;0.00;0.00
77692;PMS5003;66984;47.404;18.836;2023-02-19T03:04:43;0.00;0.00;0.00
77692;PMS5003;66984;47.404;18.836;2023-02-19T03:06:14;0.00;0.00;0.00
77692;PMS5003;66984;47.404;18.836;2023-02-19T03:07:22;0.00;0.00;0.00
77692;PMS5003;66984;47.404;18.836;2023-02-19T03:08:49;0.00;0.00;0.00
77692;PMS5003;66984;47.404;18.836;2023-02-19T03:10:04;0.00;0.00;0.00
77692;PMS5003;66984;47.404;18.836;2023-02-19T03:11:11;0.00;0.00;0.00
77692;PMS5003;66984;47.404;18.836;2023-02-19T03:12:32;0.00;0.00;0.00
77692;PMS5003;66984;47.404;18.836;2023-02-19T03:14:00;0.00;0.00;0.00
77692;PMS5003;66984;47.404;18.836;2023-02-19T03:15:27;0.00;0.00;0.00
77692;PMS5003;66984;47.404;18.836;2023-02-19T03:16:56;0.00;0.00;0.00
77692;PMS5003;66984;47.404;18.836;2023-02-19T03:18:22;0.00;0.00;0.00
77692;PMS5003;66984;47.404;18.836;2023-02-19T03:19:48;0.00;0.00;0.00
77692;PMS5003;66984;47.404;18.836;2023-02-19T03:20:54;0.00;0.00;0.00
77692;PMS5003;66984;47.404;18.836;2023-02-19T03:22:00;0.00;0.00;0.00
77692;PMS5003;66984;47.404;18.836;2023-02-19T03:23:11;0.00;0.00;0.00
77692;PMS5003;66984;47.404;18.836;2023-02-19T03:24:16;0.00;0.00;0.00
77692;PMS5003;66984;47.404;18.836;2023-02-19T03:25:41;0.00;0.00;0.00
77692;PMS5003;66984;47.404;18.836;2023-02-19T03:27:02;0.00;0.00;0.00
77692;PMS5003;66984;47.404;18.836;2023-02-19T03:28:07;0.00;0.00;0.00
77692;PMS5003;66984;47.404;18.836;2023-02-19T03:29:12;0.00;0.00;0.00
77692;PMS5003;66984;47.404;18.836;2023-02-19T03:30:27;0.00;0.00;0.00
77692;PMS5003;66984;47.404;18.836;2023-02-19T03:31:33;0.00;0.00;0.00
77692;PMS5003;66984;47.404;18.836;2023-02-19T03:32:41;0.00;0.00;0.00
77692;PMS5003;66984;47.404;18.836;2023-02-19T03:33:50;0.00;0.00;0.00
77692;PMS5003;66984;47.404;18.836;2023-02-19T03:34:59;0.00;0.00;0.00
77692;PMS5003;66984;47.404;18.836;2023-02-19T03:36:15;0.00;0.00;0.00
77692;PMS5003;66984;47.404;18.836;2023-02-19T03:37:31;0.00;0.00;0.00
77692;PMS5003;66984;47.404;18.836;2023-02-19T03:38:58;0.00;0.00;0.00
77692;PMS5003;66984;47.404;18.836;2023-02-19T03:40:04;0.00;0.00;0.00
77692;PMS5003;66984;47.404;18.836;2023-02-19T03:46:33;0.00;0.00;0.00
77692;PMS5003;66984;47.404;18.836;2023-02-19T03:48:52;0.00;0.00;0.00
77692;PMS5003;66984;47.404;18.836;2023-02-19T03:50:14;0.00;0.00;0.00
77692;PMS5003;66984;47.404;18.836;2023-02-19T03:52:41;0.00;0.00;0.00
77692;PMS5003;66984;47.404;18.836;2023-02-19T03:55:17;0.00;0.00;0.00
77692;PMS5003;66984;47.404;18.836;2023-02-19T03:56:28;0.00;0.00;0.00
77692;PMS5003;66984;47.404;18.836;2023-02-19T03:57:57;0.00;0.00;0.00
77692;PMS5003;66984;47.404;18.836;2023-02-19T03:59:25;0.00;0.00;0.00
77692;PMS5003;66984;47.404;18.836;2023-02-19T04:00:31;0.00;0.00;0.00
77692;PMS5003;66984;47.404;18.836;2023-02-19T04:02:02;0.00;0.00;0.00
77692;PMS5003;66984;47.404;18.836;2023-02-19T04:04:48;0.00;0.00;0.00
77692;PMS5003;66984;47.404;18.836;2023-02-19T04:05:58;0.00;0.00;0.00
77692;PMS5003;66984;47.404;18.836;2023-02-19T04:07:04;0.00;0.00;0.00
77692;PMS5003;66984;47.404;18.836;2023-02-19T04:08:12;0.00;0.00;0.00
77692;PMS5003;66984;47.404;18.836;2023-02-19T04:09:18;0.00;0.00;0.00
77692;PMS5003;66984;47.404;18.836;2023-02-19T04:10:23;0.00;0.00;0.00
77692;PMS5003;66984;47.404;18.836;2023-02-19T04:11:27;0.00;0.00;0.00
77692;PMS5003;66984;47.404;18.836;2023-02-19T04:12:32;0.00;0.00;0.00
77692;PMS5003;66984;47.404;18.836;2023-02-19T04:13:46;0.00;0.00;0.00
77692;PMS5003;66984;47.404;18.836;2023-02-19T04:15:00;0.00;0.00;0.00
77692;PMS5003;66984;47.404;18.836;2023-02-19T04:16:08;0.00;0.00;0.00
77692;PMS5003;66984;47.404;18.836;2023-02-19T04:17:18;0.00;0.00;0.00
77692;PMS5003;66984;47.404;18.836;2023-02-19T04:18:24;0.00;0.00;0.00
77692;PMS5003;66984;47.404;18.836;2023-02-19T04:19:32;0.00;0.00;0.00
77692;PMS5003;66984;47.404;18.836;2023-02-19T04:20:38;0.00;0.00;0.00
77692;PMS5003;66984;47.404;18.836;2023-02-19T04:21:45;0.00;0.00;0.00
77692;PMS5003;66984;47.404;18.836;2023-02-19T04:22:48;0.00;0.00;0.00
77692;PMS5003;66984;47.404;18.836;2023-02-19T04:23:52;0.00;0.00;0.00
77692;PMS5003;66984;47.404;18.836;2023-02-19T04:24:55;0.00;0.00;0.00
77692;PMS5003;66984;47.404;18.836;2023-02-19T04:25:58;0.00;0.00;0.00
77692;PMS5003;66984;47.404;18.836;2023-02-19T04:27:02;0.00;0.00;0.00
77692;PMS5003;66984;47.404;18.836;2023-02-19T04:28:07;0.00;0.00;0.00
77692;PMS5003;66984;47.404;18.836;2023-02-19T04:29:10;0.00;0.00;0.00
77692;PMS5003;66984;47.404;18.836;2023-02-19T04:30:14;0.00;0.00;0.00
77692;PMS5003;66984;47.404;18.836;2023-02-19T04:31:16;0.00;0.00;0.00
77692;PMS5003;66984;47.404;18.836;2023-02-19T04:32:19;0.00;0.00;0.00
77692;PMS5003;66984;47.404;18.836;2023-02-19T04:33:22;0.00;0.00;0.00
77692;PMS5003;66984;47.404;18.836;2023-02-19T04:34:25;0.00;0.00;0.00
77692;PMS5003;66984;47.404;18.836;2023-02-19T04:35:27;0.00;0.00;0.00
77692;PMS5003;66984;47.404;18.836;2023-02-19T04:36:30;0.00;0.00;0.00
77692;PMS5003;66984;47.404;18.836;2023-02-19T04:37:34;0.00;0.00;0.00
77692;PMS5003;66984;47.404;18.836;2023-02-19T04:38:36;0.00;0.00;0.00
77692;PMS5003;66984;47.404;18.836;2023-02-19T04:39:39;0.00;0.00;0.00
77692;PMS5003;66984;47.404;18.836;2023-02-19T04:40:42;0.00;0.00;0.00
77692;PMS5003;66984;47.404;18.836;2023-02-19T04:41:44;0.00;0.00;0.00
77692;PMS5003;66984;47.404;18.836;2023-02-19T04:42:47;0.00;0.00;0.00
77692;PMS5003;66984;47.404;18.836;2023-02-19T04:43:50;0.00;0.00;0.00
77692;PMS5003;66984;47.404;18.836;2023-02-19T04:44:53;0.00;0.00;0.00
77692;PMS5003;66984;47.404;18.836;2023-02-19T04:45:58;0.00;0.00;0.00
77692;PMS5003;66984;47.404;18.836;2023-02-19T04:47:02;0.00;0.00;0.00
77692;PMS5003;66984;47.404;18.836;2023-02-19T04:48:05;0.00;0.00;0.00
77692;PMS5003;66984;47.404;18.836;2023-02-19T04:49:08;0.00;0.00;0.00
77692;PMS5003;66984;47.404;18.836;2023-02-19T04:50:11;0.00;0.00;0.00
77692;PMS5003;66984;47.404;18.836;2023-02-19T04:51:14;0.00;0.00;0.00
77692;PMS5003;66984;47.404;18.836;2023-02-19T04:52:16;0.00;0.00;0.00
77692;PMS5003;66984;47.404;18.836;2023-02-19T04:53:19;0.00;0.00;0.00
77692;PMS5003;66984;47.404;18.836;2023-02-19T04:54:22;0.00;0.00;0.00
77692;PMS5003;66984;47.404;18.836;2023-02-19T04:55:25;0.00;0.00;0.00
77692;PMS5003;66984;47.404;18.836;2023-02-19T04:56:27;0.00;0.00;0.00
77692;PMS5003;66984;47.404;18.836;2023-02-19T04:57:30;0.00;0.00;0.00
77692;PMS5003;66984;47.404;18.836;2023-02-19T04:58:33;0.00;0.00;0.00
77692;PMS5003;66984;47.404;18.836;2023-02-19T04:59:36;0.00;0.00;0.00
77692;PMS5003;66984;47.404;18.836;2023-02-19T05:00:39;0.00;0.00;0.00
77692;PMS5003;66984;47.404;18.836;2023-02-19T05:01:41;0.00;0.00;0.00
77692;PMS5003;66984;47.404;18.836;2023-02-19T05:02:44;0.00;0.00;0.00
77692;PMS5003;66984;47.404;18.836;2023-02-19T05:03:47;0.00;0.00;0.00
77692;PMS5003;66984;47.404;18.836;2023-02-19T05:04:49;0.00;0.00;0.00
77692;PMS5003;66984;47.404;18.836;2023-02-19T05:05:52;0.00;0.00;0.00
77692;PMS5003;66984;47.404;18.836;2023-02-19T05:06:55;0.00;0.00;0.00
77692;PMS5003;66984;47.404;18.836;2023-02-19T05:07:57;0.00;0.00;0.00
77692;PMS5003;66984;47.404;18.836;2023-02-19T05:09:00;0.00;0.00;0.00
77692;PMS5003;66984;47.404;18.836;2023-02-19T05:10:03;0.00;0.00;0.00
77692;PMS5003;66984;47.404;18.836;2023-02-19T05:11:07;2.25;1.00;0.00
77692;PMS5003;66984;47.404;18.836;2023-02-19T05:12:12;1.75;1.50;0.00
77692;PMS5003;66984;47.404;18.836;2023-02-19T05:13:14;3.00;3.00;0.00
77692;PMS5003;66984;47.404;18.836;2023-02-19T05:14:17;2.25;2.00;0.00
77692;PMS5003;66984;47.404;18.836;2023-02-19T05:15:20;1.00;1.00;0.00
77692;PMS5003;66984;47.404;18.836;2023-02-19T05:16:23;0.25;0.00;0.00
77692;PMS5003;66984;47.404;18.836;2023-02-19T05:17:25;0.50;0.00;0.00
77692;PMS5003;66984;47.404;18.836;2023-02-19T05:18:28;0.00;0.00;0.00
77692;PMS5003;66984;47.404;18.836;2023-02-19T05:19:32;0.00;0.00;0.00
77692;PMS5003;66984;47.404;18.836;2023-02-19T05:20:35;0.00;0.00;0.00
77692;PMS5003;66984;47.404;18.836;2023-02-19T05:21:38;1.50;0.00;0.00
77692;PMS5003;66984;47.404;18.836;2023-02-19T05:22:42;0.00;0.00;0.00
77692;PMS5003;66984;47.404;18.836;2023-02-19T05:23:45;0.75;0.00;0.00
77692;PMS5003;66984;47.404;18.836;2023-02-19T05:24:48;1.75;0.00;0.00
77692;PMS5003;66984;47.404;18.836;2023-02-19T05:25:50;1.00;0.00;0.00
77692;PMS5003;66984;47.404;18.836;2023-02-19T05:26:53;1.00;1.00;0.00
77692;PMS5003;66984;47.404;18.836;2023-02-19T05:27:56;1.00;1.00;0.00
77692;PMS5003;66984;47.404;18.836;2023-02-19T05:29:18;5.00;5.00;0.00
77692;PMS5003;66984;47.404;18.836;2023-02-19T05:30:20;5.00;5.00;3.00
77692;PMS5003;66984;47.404;18.836;2023-02-19T05:31:23;5.00;5.00;2.00
77692;PMS5003;66984;47.404;18.836;2023-02-19T05:32:26;4.00;4.00;2.00
77692;PMS5003;66984;47.404;18.836;2023-02-19T05:33:29;4.00;4.00;1.00
77692;PMS5003;66984;47.404;18.836;2023-02-19T05:34:31;3.75;3.50;1.00
77692;PMS5003;66984;47.404;18.836;2023-02-19T05:35:39;2.25;2.25;0.00
77692;PMS5003;66984;47.404;18.836;2023-02-19T05:36:44;4.00;3.00;0.00
77692;PMS5003;66984;47.404;18.836;2023-02-19T05:37:47;4.00;4.00;1.00
77692;PMS5003;66984;47.404;18.836;2023-02-19T05:38:53;4.00;4.00;1.00
77692;PMS5003;66984;47.404;18.836;2023-02-19T05:39:57;4.00;4.00;1.00
77692;PMS5003;66984;47.404;18.836;2023-02-19T05:41:09;5.25;4.75;1.00
77692;PMS5003;66984;47.404;18.836;2023-02-19T05:42:14;4.25;4.00;1.00
77692;PMS5003;66984;47.404;18.836;2023-02-19T05:43:17;4.00;3.00;1.00
77692;PMS5003;66984;47.404;18.836;2023-02-19T05:44:20;3.00;3.00;1.00
77692;PMS5003;66984;47.404;18.836;2023-02-19T05:45:22;0.25;0.25;0.00
77692;PMS5003;66984;47.404;18.836;2023-02-19T05:46:26;0.25;0.25;0.00
77692;PMS5003;66984;47.404;18.836;2023-02-19T05:47:33;2.00;1.00;0.00
77692;PMS5003;66984;47.404;18.836;2023-02-19T05:48:36;1.00;1.00;0.00
77692;PMS5003;66984;47.404;18.836;2023-02-19T05:49:39;1.00;1.00;0.00
77692;PMS5003;66984;47.404;18.836;2023-02-19T05:50:41;2.25;1.00;0.00
77692;PMS5003;66984;47.404;18.836;2023-02-19T05:51:44;3.00;2.00;0.00
77692;PMS5003;66984;47.404;18.836;2023-02-19T05:52:46;2.00;1.00;0.00
77692;PMS5003;66984;47.404;18.836;2023-02-19T05:53:49;2.75;2.75;0.00
77692;PMS5003;66984;47.404;18.836;2023-02-19T05:54:52;3.25;3.25;0.00
77692;PMS5003;66984;47.404;18.836;2023-02-19T05:55:55;4.75;4.75;0.00
77692;PMS5003;66984;47.404;18.836;2023-02-19T05:56:57;5.75;5.75;2.00
77692;PMS5003;66984;47.404;18.836;2023-02-19T05:58:00;10.50;10.50;5.75
77692;PMS5003;66984;47.404;18.836;2023-02-19T05:59:07;12.00;12.00;6.00
77692;PMS5003;66984;47.404;18.836;2023-02-19T06:00:20;16.00;15.50;9.75
77692;PMS5003;66984;47.404;18.836;2023-02-19T06:01:24;19.00;19.00;10.00
77692;PMS5003;66984;47.404;18.836;2023-02-19T06:02:28;16.00;16.00;7.25
77692;PMS5003;66984;47.404;18.836;2023-02-19T06:03:31;13.00;13.00;5.00
77692;PMS5003;66984;47.404;18.836;2023-02-19T06:04:34;10.00;9.50;5.00
77692;PMS5003;66984;47.404;18.836;2023-02-19T06:05:37;7.75;6.75;3.50
77692;PMS5003;66984;47.404;18.836;2023-02-19T06:06:40;6.00;6.00;3.00
77692;PMS5003;66984;47.404;18.836;2023-02-19T06:07:44;5.00;5.00;3.00
77692;PMS5003;66984;47.404;18.836;2023-02-19T06:08:48;5.00;5.00;2.00
77692;PMS5003;66984;47.404;18.836;2023-02-19T06:09:51;4.50;4.50;3.00
77692;PMS5003;66984;47.404;18.836;2023-02-19T06:10:54;3.25;3.25;1.00
77692;PMS5003;66984;47.404;18.836;2023-02-19T06:11:57;5.25;5.25;1.75
77692;PMS5003;66984;47.404;18.836;2023-02-19T06:12:59;5.00;5.00;2.00
77692;PMS5003;66984;47.404;18.836;2023-02-19T06:14:02;5.00;5.00;3.00
77692;PMS5003;66984;47.404;18.836;2023-02-19T06:15:05;4.00;4.00;2.00
77692;PMS5003;66984;47.404;18.836;2023-02-19T06:16:09;5.00;4.00;2.00
77692;PMS5003;66984;47.404;18.836;2023-02-19T06:17:12;16.25;15.25;8.25
77692;PMS5003;66984;47.404;18.836;2023-02-19T06:18:15;40.00;34.00;21.00
77692;PMS5003;66984;47.404;18.836;2023-02-19T06:19:18;60.00;52.50;32.00
77692;PMS5003;66984;47.404;18.836;2023-02-19T06:20:21;96.00;92.50;51.25
77692;PMS5003;66984;47.404;18.836;2023-02-19T06:21:26;122.50;114.50;64.25
77692;PMS5003;66984;47.404;18.836;2023-02-19T06:22:29;125.50;116.50;64.50
77692;PMS5003;66984;47.404;18.836;2023-02-19T06:23:32;114.00;104.75;58.25
77692;PMS5003;66984;47.404;18.836;2023-02-19T06:24:35;72.75;68.00;38.25
77692;PMS5003;66984;47.404;18.836;2023-02-19T06:25:38;52.75;42.00;26.00
77692;PMS5003;66984;47.404;18.836;2023-02-19T06:26:41;33.75;28.75;17.25
77692;PMS5003;66984;47.404;18.836;2023-02-19T06:27:44;15.00;13.00;5.50
77692;PMS5003;66984;47.404;18.836;2023-02-19T06:28:47;4.00;3.00;1.00
77692;PMS5003;66984;47.404;18.836;2023-02-19T06:29:51;4.00;4.00;0.00
77692;PMS5003;66984;47.404;18.836;2023-02-19T06:30:54;4.00;4.00;1.00
77692;PMS5003;66984;47.404;18.836;2023-02-19T06:31:59;4.00;4.00;0.00
77692;PMS5003;66984;47.404;18.836;2023-02-19T06:33:02;3.50;3.50;1.00
77692;PMS5003;66984;47.404;18.836;2023-02-19T06:34:05;4.25;4.25;2.00
77692;PMS5003;66984;47.404;18.836;2023-02-19T06:35:07;5.00;5.00;3.00
77692;PMS5003;66984;47.404;18.836;2023-02-19T06:36:11;5.50;5.00;4.00
77692;PMS5003;66984;47.404;18.836;2023-02-19T06:37:16;5.75;5.50;4.00
77692;PMS5003;66984;47.404;18.836;2023-02-19T06:38:22;7.00;7.00;1.00
77692;PMS5003;66984;47.404;18.836;2023-02-19T06:39:24;7.00;6.00;2.00
77692;PMS5003;66984;47.404;18.836;2023-02-19T06:40:27;6.00;6.00;2.00
77692;PMS5003;66984;47.404;18.836;2023-02-19T06:41:30;5.00;5.00;2.00
77692;PMS5003;66984;47.404;18.836;2023-02-19T06:42:33;5.50;5.00;2.00
77692;PMS5003;66984;47.404;18.836;2023-02-19T06:43:36;5.75;5.00;1.75
77692;PMS5003;66984;47.404;18.836;2023-02-19T06:44:39;7.75;5.00;2.00
77692;PMS5003;66984;47.404;18.836;2023-02-19T06:45:41;8.75;6.75;3.75
77692;PMS5003;66984;47.404;18.836;2023-02-19T06:46:44;11.00;9.00;4.75